Jujuy, Jujuy Gobernador Horacio Guzman International Airport (SASJ)

NameJujuy Gobernador Horacio Guzman International Airport
CityJujuy
CountryArgentina
ICAOSASJ
IATAJUJ
Altitude920 m
CoordinatesGoogle Map
Live Air TrafficLiveATC.net
METARSASJ 251700Z 09004KT 9999 FEW035 29/19 Q1012
2020-04-25 17:00:00 Wind: East (90°) 2.06 m/s - Visibility: > 10000 m - Temperature: 29 °C - Dew point: 19 °C - Humidity: 54.8% - Pressure: 1012 hPa

Sorry, no flights used the airport in this database.